Time;durP1;ratioP1;P1;durP2;ratioP2;P2;SDS_P1;SDS_P2;PMS_P1;PMS_P2;Temp;Humidity;BMP_temperature;BMP_pressure;BME280_temperature;BME280_humidity;BME280_pressure;Samples;Min_cycle;Max_cycle;Signal;HPM_P1;HPM_P2
2022/07/27 00:01:04;;;;;;;2.42;0.70;;;19.80;78.40;;;;;;10522519;28;20048;-64
2022/07/27 00:06:06;;;;;;;3.38;0.88;;;19.80;78.40;;;;;;10518463;28;20031;-66
2022/07/27 00:11:09;;;;;;;0.98;0.40;;;19.80;78.50;;;;;;10523918;28;20035;-65
2022/07/27 00:22:07;;;;;;;1.13;0.70;;;19.70;78.60;;;;;;10519369;28;20542;-63
2022/07/27 00:27:07;;;;;;;1.73;0.70;;;19.70;78.60;;;;;;10522982;28;20069;-65
2022/07/27 00:32:08;;;;;;;1.55;0.60;;;19.70;78.60;;;;;;10522867;28;20503;-65
2022/07/27 00:37:09;;;;;;;2.35;0.70;;;19.70;78.70;;;;;;10522014;28;20141;-62
2022/07/27 00:42:09;;;;;;;1.67;0.60;;;19.70;78.80;;;;;;10520671;28;20031;-65
2022/07/27 00:47:10;;;;;;;1.55;0.73;;;19.70;78.80;;;;;;10520623;28;20035;-62
2022/07/27 00:52:12;;;;;;;1.02;0.50;;;19.60;78.80;;;;;;10522149;28;20044;-67
2022/07/27 00:57:14;;;;;;;1.33;0.70;;;19.60;78.90;;;;;;10521475;28;20053;-63
2022/07/27 01:02:15;;;;;;;2.55;1.15;;;19.60;78.90;;;;;;10517265;28;20043;-65
2022/07/27 01:07:16;;;;;;;2.47;0.50;;;19.60;79.00;;;;;;10518392;28;20098;-62
2022/07/27 01:12:18;;;;;;;2.40;0.52;;;19.50;79.00;;;;;;10518735;28;20070;-66
2022/07/27 01:17:19;;;;;;;1.35;0.80;;;19.50;79.00;;;;;;10517759;28;20036;-64
2022/07/27 01:22:20;;;;;;;0.70;0.50;;;19.50;79.10;;;;;;10517071;28;20024;-64
2022/07/27 01:27:20;;;;;;;0.73;0.47;;;19.40;79.00;;;;;;10519569;28;20037;-65
2022/07/27 01:32:21;;;;;;;3.17;0.70;;;19.50;79.20;;;;;;10521379;28;20035;-64
2022/07/27 01:37:22;;;;;;;1.90;0.60;;;19.40;79.10;;;;;;10520972;28;20020;-63
2022/07/27 01:42:22;;;;;;;1.08;0.50;;;19.40;79.20;;;;;;10502916;28;20510;-66
2022/07/27 01:47:25;;;;;;;1.35;0.63;;;19.40;79.20;;;;;;10527346;28;20051;-65
2022/07/27 01:52:26;;;;;;;1.38;0.55;;;19.40;79.20;;;;;;10528237;28;20029;-67
2022/07/27 01:57:27;;;;;;;2.25;0.57;;;19.30;79.30;;;;;;10527340;28;20020;-66
2022/07/27 02:02:28;;;;;;;2.10;0.70;;;19.30;79.30;;;;;;10527718;28;20044;-60
2022/07/27 02:07:28;;;;;;;1.05;0.47;;;19.30;79.30;;;;;;10525722;28;20048;-67
2022/07/27 02:12:35;;;;;;;2.55;0.57;;;19.30;79.30;;;;;;10527726;28;20020;-66
2022/07/27 02:17:36;;;;;;;2.05;0.60;;;19.30;79.30;;;;;;10527510;28;20052;-66
2022/07/27 02:22:37;;;;;;;4.22;0.63;;;19.20;79.30;;;;;;10526461;28;20057;-66
2022/07/27 02:27:40;;;;;;;1.63;0.60;;;19.20;79.30;;;;;;10525966;28;20024;-64
2022/07/27 02:32:42;;;;;;;0.68;0.45;;;19.20;79.40;;;;;;10526089;28;20031;-66
2022/07/27 02:37:42;;;;;;;0.95;0.60;;;19.20;79.40;;;;;;10527740;28;20039;-63
2022/07/27 02:42:44;;;;;;;1.77;0.50;;;19.10;79.30;;;;;;10527765;28;20020;-67
2022/07/27 02:47:45;;;;;;;0.93;0.50;;;19.10;79.40;;;;;;10526358;28;20064;-66
2022/07/27 02:52:45;;;;;;;0.88;0.60;;;19.10;79.40;;;;;;10526306;28;20513;-66
2022/07/27 02:57:46;;;;;;;1.70;0.65;;;19.10;79.40;;;;;;10524935;28;20482;-66
2022/07/27 03:02:48;;;;;;;1.17;0.65;;;19.00;79.40;;;;;;10522880;28;20052;-67
2022/07/27 03:07:48;;;;;;;1.88;0.50;;;19.00;79.40;;;;;;10524591;28;20139;-66
2022/07/27 03:12:49;;;;;;;1.70;0.60;;;19.00;79.40;;;;;;10524602;28;20575;-68
2022/07/27 03:17:50;;;;;;;0.77;0.50;;;19.00;80.00;;;;;;10523708;28;20498;-66
2022/07/27 03:22:51;;;;;;;0.50;0.50;;;18.90;79.40;;;;;;10525971;28;20032;-66
2022/07/27 03:27:51;;;;;;;1.08;0.57;;;18.90;79.40;;;;;;10521598;28;20525;-67
2022/07/27 03:32:52;;;;;;;0.88;0.60;;;18.90;79.40;;;;;;10522214;28;20024;-66
2022/07/27 03:37:53;;;;;;;1.92;0.70;;;18.90;79.40;;;;;;10521510;28;20119;-67
2022/07/27 03:42:54;;;;;;;1.17;0.60;;;18.80;79.40;;;;;;10522022;28;20494;-67
2022/07/27 03:47:54;;;;;;;0.93;0.40;;;18.80;79.40;;;;;;10522464;28;20040;-67
2022/07/27 03:52:55;;;;;;;2.92;0.93;;;18.80;79.40;;;;;;10523448;28;20032;-66
2022/07/27 03:57:56;;;;;;;1.63;0.50;;;19.40;79.70;;;;;;10520575;28;20028;-67
2022/07/27 04:02:57;;;;;;;3.40;0.60;;;18.80;79.40;;;;;;10520554;28;20052;-66
2022/07/27 04:07:57;;;;;;;3.08;0.70;;;18.70;79.30;;;;;;10520657;28;20044;-68
2022/07/27 04:12:58;;;;;;;0.55;0.40;;;18.70;79.30;;;;;;10504272;28;20115;-65
2022/07/27 04:17:59;;;;;;;3.63;0.70;;;18.70;79.40;;;;;;10507994;28;20368;-65
2022/07/27 04:23:00;;;;;;;1.20;0.60;;;18.70;79.40;;;;;;10440410;28;20023;-67
2022/07/27 04:28:00;;;;;;;2.45;0.80;;;18.70;79.40;;;;;;10443271;28;20044;-67
2022/07/27 04:33:01;;;;;;;2.17;0.80;;;18.60;79.30;;;;;;10442601;28;21124;-67
2022/07/27 04:38:02;;;;;;;0.50;0.50;;;18.60;79.30;;;;;;10441173;28;20615;-64
2022/07/27 04:43:04;;;;;;;0.98;0.63;;;18.60;79.30;;;;;;10444715;28;20062;-68
2022/07/27 04:48:09;;;;;;;2.63;0.60;;;18.60;79.30;;;;;;10442346;28;20031;-68
2022/07/27 04:53:11;;;;;;;2.00;0.50;;;18.60;79.30;;;;;;10438709;28;20144;-61
2022/07/27 04:58:13;;;;;;;0.90;0.80;;;18.50;79.20;;;;;;10443971;28;20068;-71
2022/07/27 05:03:14;;;;;;;1.33;0.70;;;18.50;79.40;;;;;;10426369;28;21028;-62
2022/07/27 05:08:14;;;;;;;2.53;0.80;;;18.50;79.50;;;;;;10432048;28;20539;-68
2022/07/27 05:13:16;;;;;;;1.88;0.90;;;18.40;79.50;;;;;;10431159;28;20795;-63
2022/07/27 05:18:17;;;;;;;4.28;0.77;;;18.40;79.50;;;;;;10429803;28;20035;-65
2022/07/27 05:23:18;;;;;;;1.65;0.77;;;18.40;79.50;;;;;;10431722;28;20059;-61
2022/07/27 05:28:19;;;;;;;3.08;0.70;;;18.40;79.50;;;;;;10429684;28;20564;-66
2022/07/27 05:33:21;;;;;;;1.60;0.50;;;18.40;79.50;;;;;;10428795;28;20035;-61
2022/07/27 05:38:22;;;;;;;0.90;0.80;;;18.40;79.50;;;;;;10428135;28;20548;-70
2022/07/27 05:43:22;;;;;;;2.88;0.80;;;18.40;79.50;;;;;;10433009;28;20172;-69
2022/07/27 05:48:23;;;;;;;3.63;0.80;;;18.40;79.50;;;;;;10435402;28;20418;-62
2022/07/27 05:53:24;;;;;;;0.98;0.65;;;18.40;79.50;;;;;;10427745;28;20098;-64
2022/07/27 05:58:28;;;;;;;1.45;0.50;;;18.40;79.50;;;;;;10425533;28;20031;-64
2022/07/27 06:03:29;;;;;;;0.90;0.50;;;18.40;79.50;;;;;;10430968;28;20894;-64
2022/07/27 06:08:31;;;;;;;2.45;0.60;;;18.50;79.50;;;;;;10431316;28;20828;-63
2022/07/27 06:13:34;;;;;;;2.28;0.68;;;18.50;79.40;;;;;;10435357;28;20525;-67
2022/07/27 06:18:35;;;;;;;1.73;0.70;;;18.50;79.40;;;;;;10427982;28;20036;-63
2022/07/27 06:23:36;;;;;;;2.38;0.70;;;18.50;79.40;;;;;;10438308;28;20024;-69
2022/07/27 06:28:37;;;;;;;2.67;0.60;;;18.50;79.30;;;;;;10439639;28;20147;-70
2022/07/27 06:33:38;;;;;;;1.77;0.80;;;18.50;79.40;;;;;;10448951;28;20028;-70
2022/07/27 06:38:39;;;;;;;3.72;0.57;;;18.50;79.30;;;;;;10444482;28;20558;-61
2022/07/27 06:43:39;;;;;;;3.08;1.05;;;18.60;79.30;;;;;;10446127;28;20101;-70
2022/07/27 06:48:40;;;;;;;1.33;0.60;;;18.60;79.30;;;;;;10447671;28;20248;-70
2022/07/27 06:53:43;;;;;;;3.17;1.33;;;18.60;79.40;;;;;;10444944;28;20477;-63
2022/07/27 06:58:44;;;;;;;1.98;0.70;;;18.60;79.40;;;;;;10442212;28;20067;-69
2022/07/27 07:03:45;;;;;;;0.88;0.63;;;18.60;79.40;;;;;;10443719;28;20415;-69
2022/07/27 07:08:46;;;;;;;1.42;0.57;;;18.60;79.40;;;;;;10433802;28;20884;-61
2022/07/27 07:13:46;;;;;;;1.08;0.65;;;18.60;79.50;;;;;;10439366;28;20363;-69
2022/07/27 07:18:47;;;;;;;1.48;0.90;;;18.60;79.60;;;;;;10440720;28;20140;-70
2022/07/27 07:23:48;;;;;;;2.35;0.60;;;18.60;79.50;;;;;;10438816;28;20625;-61
2022/07/27 07:28:49;;;;;;;1.33;0.80;;;18.60;79.60;;;;;;10436782;28;20049;-61
2022/07/27 07:33:50;;;;;;;2.58;0.47;;;18.60;79.50;;;;;;10443597;28;20032;-64
2022/07/27 07:38:51;;;;;;;1.92;0.52;;;18.70;79.50;;;;;;10440874;28;20040;-68
2022/07/27 07:43:53;;;;;;;3.28;0.68;;;18.60;79.40;;;;;;10436404;28;20111;-63
2022/07/27 07:48:54;;;;;;;0.90;0.50;;;18.70;79.40;;;;;;10441253;28;20353;-65
2022/07/27 07:53:54;;;;;;;2.90;0.88;;;18.70;79.40;;;;;;10445327;28;20055;-62
2022/07/27 07:58:55;;;;;;;1.25;0.63;;;18.70;79.30;;;;;;10437304;28;20071;-69
2022/07/27 08:03:56;;;;;;;0.50;0.35;;;18.70;79.40;;;;;;10444198;28;20075;-69
2022/07/27 08:08:57;;;;;;;1.55;0.70;;;18.80;79.40;;;;;;10437846;28;20080;-69
2022/07/27 08:13:58;;;;;;;1.48;0.70;;;18.80;79.40;;;;;;10434910;28;20046;-69
2022/07/27 08:18:58;;;;;;;2.30;1.00;;;18.80;79.40;;;;;;10442233;28;20039;-70
2022/07/27 08:23:59;;;;;;;2.30;0.60;;;18.90;79.40;;;;;;10439631;28;20039;-61
2022/07/27 08:29:00;;;;;;;2.25;0.60;;;18.90;79.30;;;;;;10438907;28;20084;-61
2022/07/27 08:34:00;;;;;;;2.08;0.60;;;18.90;79.20;;;;;;10433269;28;20195;-66
2022/07/27 08:39:07;;;;;;;1.92;0.70;;;19.00;79.10;;;;;;10434353;28;20054;-63
2022/07/27 08:44:11;;;;;;;2.08;0.57;;;19.00;79.00;;;;;;10435488;28;20213;-64
2022/07/27 08:49:12;;;;;;;1.30;0.60;;;19.00;78.90;;;;;;10433408;28;20035;-63
2022/07/27 08:54:14;;;;;;;0.70;0.52;;;19.10;78.90;;;;;;10433793;28;20412;-68
2022/07/27 08:59:14;;;;;;;1.08;0.70;;;19.60;79.00;;;;;;10443890;28;20454;-69
2022/07/27 09:04:15;;;;;;;1.02;0.50;;;19.20;78.70;;;;;;10435687;28;20064;-69
2022/07/27 09:09:19;;;;;;;0.90;0.60;;;19.20;78.60;;;;;;10442328;28;20078;-61
2022/07/27 09:14:30;;;;;;;2.25;0.60;;;19.30;78.60;;;;;;10441097;28;20470;-68
2022/07/27 09:19:51;;;;;;;0.88;0.60;;;19.30;78.60;;;;;;10441443;28;20028;-69
2022/07/27 09:25:01;;;;;;;0.98;0.50;;;19.40;78.40;;;;;;10439959;28;20036;-69
2022/07/27 09:30:05;;;;;;;0.88;0.52;;;19.20;78.30;;;;;;10441262;28;20195;-62
2022/07/27 09:35:21;;;;;;;1.83;0.70;;;19.40;78.40;;;;;;10442212;28;20421;-64
2022/07/27 09:40:22;;;;;;;0.65;0.50;;;19.40;79.00;;;;;;10445439;28;21078;-69
2022/07/27 09:45:28;;;;;;;1.02;0.50;;;19.40;78.30;;;;;;10441095;28;20054;-69
2022/07/27 09:50:29;;;;;;;0.60;0.50;;;19.50;78.20;;;;;;10440047;28;20044;-69
2022/07/27 09:55:30;;;;;;;2.50;0.80;;;19.50;78.20;;;;;;10443411;28;20139;-70
2022/07/27 10:00:31;;;;;;;1.42;0.65;;;19.50;78.20;;;;;;10423454;28;20035;-69
2022/07/27 10:05:32;;;;;;;0.63;0.60;;;19.50;78.30;;;;;;10443549;28;20318;-66
2022/07/27 10:10:34;;;;;;;0.90;0.55;;;19.50;78.40;;;;;;10452150;28;20036;-70
2022/07/27 10:15:38;;;;;;;1.42;0.80;;;19.50;78.40;;;;;;10448345;28;20553;-70
2022/07/27 10:20:41;;;;;;;0.85;0.68;;;19.50;78.40;;;;;;10452079;28;20035;-69
2022/07/27 10:25:43;;;;;;;1.58;0.60;;;19.30;78.10;;;;;;10452768;28;20070;-64
2022/07/27 10:30:44;;;;;;;1.05;0.55;;;19.70;78.20;;;;;;10453262;28;20083;-69
2022/07/27 10:35:45;;;;;;;3.85;1.13;;;19.70;78.10;;;;;;10441110;28;20443;-69
2022/07/27 10:40:46;;;;;;;2.22;0.85;;;19.70;78.10;;;;;;10446566;28;20340;-69
2022/07/27 10:45:51;;;;;;;1.40;0.70;;;19.70;78.10;;;;;;10443087;28;20224;-65
2022/07/27 10:50:51;;;;;;;1.63;0.60;;;19.70;78.20;;;;;;10435983;28;20346;-62
2022/07/27 10:55:52;;;;;;;1.88;0.70;;;19.80;78.10;;;;;;10442751;28;20153;-69
2022/07/27 11:00:53;;;;;;;1.67;0.52;;;19.80;78.10;;;;;;10444132;28;20032;-65
2022/07/27 11:06:07;;;;;;;0.55;0.50;;;19.80;78.00;;;;;;10362996;28;20360;-61
2022/07/27 11:11:09;;;;;;;0.80;0.60;;;19.90;78.10;;;;;;10365334;28;20095;-69
2022/07/27 11:16:14;;;;;;;0.65;0.60;;;19.90;78.00;;;;;;10362386;28;20806;-65
2022/07/27 11:21:19;;;;;;;0.82;0.70;;;20.00;77.90;;;;;;10361291;28;20431;-69
2022/07/27 11:26:22;;;;;;;1.35;0.77;;;20.00;77.70;;;;;;10357997;28;20557;-68
2022/07/27 11:31:23;;;;;;;1.25;0.60;;;20.10;77.60;;;;;;10360558;28;20037;-62
2022/07/27 11:36:37;;;;;;;1.02;0.60;;;20.20;77.50;;;;;;10361569;28;20017;-63
2022/07/27 11:41:38;;;;;;;1.60;0.55;;;20.30;77.30;;;;;;10361827;28;20118;-69
2022/07/27 11:46:41;;;;;;;1.38;0.60;;;20.40;77.30;;;;;;10361995;28;20021;-68
2022/07/27 11:51:47;;;;;;;1.83;0.88;;;20.40;77.30;;;;;;10357677;28;20056;-66
2022/07/27 11:56:54;;;;;;;1.23;0.60;;;20.50;77.20;;;;;;10360061;28;20040;-62
2022/07/27 12:01:57;;;;;;;0.95;0.50;;;20.50;77.00;;;;;;10362748;28;20089;-65
2022/07/27 12:07:01;;;;;;;1.42;0.70;;;20.60;77.00;;;;;;10428380;28;20043;-66
2022/07/27 12:12:19;;;;;;;1.00;0.60;;;20.70;76.90;;;;;;10421472;28;20041;-65
2022/07/27 12:17:27;;;;;;;1.43;0.67;;;20.70;77.00;;;;;;10427824;28;20047;-68
2022/07/27 12:22:46;;;;;;;2.03;0.70;;;20.70;77.00;;;;;;10426878;28;20051;-67
2022/07/27 12:28:06;;;;;;;0.70;0.57;;;20.70;77.10;;;;;;10428547;28;20384;-65
2022/07/27 12:33:28;;;;;;;2.13;0.75;;;20.70;77.10;;;;;;10429708;28;20307;-64
2022/07/27 12:38:44;;;;;;;0.90;0.73;;;20.70;77.10;;;;;;10413093;28;20395;-61
2022/07/27 12:44:02;;;;;;;1.88;0.57;;;20.70;76.90;;;;;;10433926;28;20063;-65
2022/07/27 12:49:14;;;;;;;1.58;0.65;;;20.70;77.00;;;;;;10431519;28;20037;-65
2022/07/27 12:54:15;;;;;;;2.30;0.60;;;20.70;76.80;;;;;;10425889;28;20241;-65
2022/07/27 12:59:20;;;;;;;0.65;0.65;;;20.40;76.60;;;;;;10428504;28;20028;-64
2022/07/27 13:04:21;;;;;;;1.90;0.75;;;20.80;76.80;;;;;;10430380;28;20468;-68
2022/07/27 13:09:22;;;;;;;2.15;0.57;;;20.80;76.70;;;;;;10433998;28;20336;-66
2022/07/27 13:14:22;;;;;;;1.67;0.47;;;20.90;75.10;;;;;;10433969;28;20035;-67
2022/07/27 13:19:23;;;;;;;3.95;0.60;;;21.00;75.00;;;;;;10403364;28;20361;-66
2022/07/27 13:24:24;;;;;;;2.50;0.90;;;21.00;74.90;;;;;;10421568;28;20041;-65
2022/07/27 13:29:25;;;;;;;1.30;0.70;;;21.00;74.80;;;;;;10427182;28;20036;-68
2022/07/27 13:34:26;;;;;;;1.27;0.70;;;21.10;74.70;;;;;;10435020;28;20043;-68
2022/07/27 13:39:27;;;;;;;1.85;0.60;;;21.20;74.70;;;;;;10429733;28;20464;-63
2022/07/27 13:44:27;;;;;;;1.10;0.70;;;21.30;74.50;;;;;;10436584;28;20035;-68
2022/07/27 13:49:28;;;;;;;1.38;0.60;;;21.30;74.60;;;;;;10437032;28;20032;-67
2022/07/27 13:54:29;;;;;;;2.53;0.85;;;21.30;75.00;;;;;;10430642;28;20191;-68
2022/07/27 13:59:30;;;;;;;1.67;0.77;;;21.20;75.40;;;;;;10438311;28;20119;-68
2022/07/27 14:04:34;;;;;;;0.93;0.60;;;21.10;75.40;;;;;;10442386;28;20767;-68
2022/07/27 14:14:56;;;;;;;1.65;0.90;;;21.00;75.70;;;;;;10417912;28;20049;-68
2022/07/27 14:19:56;;;;;;;2.15;0.65;;;21.00;76.00;;;;;;10443558;28;20036;-68
2022/07/27 14:24:57;;;;;;;2.15;0.70;;;21.00;76.10;;;;;;10440091;28;20101;-69
2022/07/27 14:29:58;;;;;;;1.58;0.82;;;21.00;76.30;;;;;;10421042;28;20178;-68
2022/07/27 14:34:59;;;;;;;1.67;0.90;;;21.00;76.30;;;;;;10433480;28;20017;-69
2022/07/27 14:40:00;;;;;;;2.17;0.70;;;21.00;76.30;;;;;;10431919;28;20528;-67
2022/07/27 14:45:01;;;;;;;0.90;0.70;;;21.00;76.30;;;;;;10442543;28;20062;-68
2022/07/27 14:50:02;;;;;;;1.20;0.80;;;21.00;76.20;;;;;;10436855;28;20050;-68
2022/07/27 14:55:04;;;;;;;2.05;0.80;;;21.10;76.30;;;;;;10439031;28;20276;-62
2022/07/27 15:00:09;;;;;;;2.75;0.90;;;21.10;76.20;;;;;;10435267;28;20047;-62
2022/07/27 15:05:11;;;;;;;1.83;0.60;;;21.10;76.30;;;;;;10432892;28;20142;-63
2022/07/27 15:10:12;;;;;;;0.80;0.68;;;21.20;76.20;;;;;;10436722;28;20459;-63
2022/07/27 15:15:14;;;;;;;2.85;0.93;;;21.30;76.10;;;;;;10442358;28;20501;-63
2022/07/27 15:20:15;;;;;;;0.98;0.60;;;21.30;76.00;;;;;;10443373;28;20040;-69
2022/07/27 15:25:16;;;;;;;2.63;0.90;;;21.40;75.80;;;;;;10453994;28;20393;-69
2022/07/27 15:30:17;;;;;;;1.63;0.65;;;21.60;75.60;;;;;;10452169;28;20048;-71
2022/07/27 15:35:18;;;;;;;1.27;0.68;;;21.80;75.30;;;;;;10439303;28;20036;-69
2022/07/27 15:40:37;;;;;;;1.70;0.70;;;21.90;74.90;;;;;;10455040;28;20035;-70
2022/07/27 15:45:39;;;;;;;1.20;0.50;;;22.10;74.60;;;;;;10454423;28;20040;-67
2022/07/27 15:50:43;;;;;;;3.30;0.60;;;22.20;74.30;;;;;;10438185;28;20040;-66
2022/07/27 15:55:44;;;;;;;1.13;0.60;;;22.30;74.20;;;;;;10437892;28;20568;-66
2022/07/27 16:00:51;;;;;;;3.30;0.90;;;22.40;74.00;;;;;;10435801;28;20435;-67
2022/07/27 16:05:52;;;;;;;2.67;0.70;;;22.50;74.00;;;;;;10438551;28;20052;-67
2022/07/27 16:10:53;;;;;;;1.77;0.60;;;22.50;74.00;;;;;;10437104;28;20349;-68
2022/07/27 16:21:13;;;;;;;1.48;0.65;;;22.40;74.00;;;;;;10443448;28;20246;-67
2022/07/27 16:26:15;;;;;;;1.45;0.60;;;22.30;74.20;;;;;;10429142;28;20205;-67
2022/07/27 16:31:18;;;;;;;1.55;0.65;;;22.30;74.30;;;;;;10439963;28;20157;-68
2022/07/27 16:36:19;;;;;;;1.48;0.60;;;22.20;74.40;;;;;;10433527;28;20024;-67
2022/07/27 16:41:21;;;;;;;2.00;0.70;;;22.20;74.80;;;;;;10442007;28;20031;-68
2022/07/27 16:46:22;;;;;;;2.38;0.60;;;22.10;75.00;;;;;;10438759;28;20166;-68
2022/07/27 16:51:23;;;;;;;1.48;0.63;;;22.00;75.10;;;;;;10435454;28;20137;-67
2022/07/27 16:56:24;;;;;;;2.63;0.90;;;22.00;75.20;;;;;;10435054;28;20024;-65
2022/07/27 17:01:24;;;;;;;2.20;0.52;;;21.60;73.00;;;;;;10440686;28;20621;-66
2022/07/27 17:06:26;;;;;;;1.55;0.68;;;21.00;72.90;;;;;;10417381;28;20085;-66
2022/07/27 17:42:29;;;;;;;4.80;0.75;;;19.70;72.80;;;;;;11821591;22;20061;-64
2022/07/27 17:47:30;;;;;;;3.80;0.90;;;19.50;73.10;;;;;;10544585;27;20075;-64
2022/07/27 17:52:31;;;;;;;5.38;0.50;;;19.40;73.50;;;;;;10548890;27;20287;-65
2022/07/27 17:57:32;;;;;;;2.05;0.60;;;19.30;73.50;;;;;;10542749;27;20042;-73
2022/07/27 18:02:33;;;;;;;1.95;0.80;;;19.30;73.50;;;;;;10561147;27;20034;-69
2022/07/27 18:07:34;;;;;;;2.95;0.80;;;19.50;73.50;;;;;;10554310;27;20142;-67
2022/07/27 18:12:34;;;;;;;2.40;0.65;;;19.70;73.20;;;;;;10543984;27;20154;-63
2022/07/27 18:17:38;;;;;;;1.60;0.80;;;20.00;73.10;;;;;;10549934;27;20407;-68
2022/07/27 18:22:38;;;;;;;1.40;0.57;;;20.10;73.00;;;;;;10553528;27;20500;-69
2022/07/27 18:27:39;;;;;;;2.13;0.70;;;20.20;73.00;;;;;;10556170;27;20090;-68
2022/07/27 18:32:41;;;;;;;1.20;0.50;;;20.30;73.10;;;;;;10553441;27;20216;-69
2022/07/27 18:37:43;;;;;;;1.75;0.40;;;20.40;73.10;;;;;;10558104;27;20136;-64
2022/07/27 18:42:45;;;;;;;2.92;0.75;;;20.40;73.10;;;;;;10560368;27;20043;-69
2022/07/27 18:47:46;;;;;;;1.58;0.60;;;20.50;73.30;;;;;;10555023;27;20454;-68
2022/07/27 18:52:47;;;;;;;1.52;0.60;;;20.30;73.20;;;;;;10556380;27;20039;-68
2022/07/27 18:57:54;;;;;;;1.92;0.60;;;20.50;73.40;;;;;;10563841;27;20027;-68
2022/07/27 19:02:56;;;;;;;1.40;0.50;;;20.50;73.40;;;;;;10561638;27;20396;-69
2022/07/27 19:07:57;;;;;;;1.35;0.60;;;20.50;73.50;;;;;;10555771;27;20059;-69
2022/07/27 19:12:57;;;;;;;2.08;0.60;;;20.50;73.60;;;;;;10556100;27;20445;-64
2022/07/27 19:18:00;;;;;;;2.13;0.63;;;20.50;73.60;;;;;;10555644;27;20058;-69
2022/07/27 19:23:00;;;;;;;2.08;0.70;;;20.50;73.80;;;;;;10554953;27;20506;-67
2022/07/27 19:28:02;;;;;;;2.17;0.60;;;20.40;73.80;;;;;;10549507;27;20267;-63
2022/07/27 19:33:04;;;;;;;1.55;0.57;;;20.60;74.00;;;;;;10560193;27;20035;-69
2022/07/27 19:38:07;;;;;;;1.85;0.68;;;20.40;74.00;;;;;;10554338;27;20302;-69
2022/07/27 19:43:07;;;;;;;1.20;0.60;;;20.40;74.10;;;;;;10556403;27;20515;-68
2022/07/27 19:48:08;;;;;;;2.63;0.60;;;20.40;74.10;;;;;;10560338;27;20315;-68
2022/07/27 19:53:09;;;;;;;1.15;0.60;;;20.40;74.20;;;;;;10549879;27;20467;-68
2022/07/27 19:58:09;;;;;;;1.08;0.60;;;20.30;74.20;;;;;;10548542;27;20039;-68
2022/07/27 20:03:11;;;;;;;1.98;0.70;;;20.30;74.30;;;;;;10548329;27;20035;-69
2022/07/27 20:08:12;;;;;;;0.63;0.40;;;20.30;74.40;;;;;;10554892;27;20146;-69
2022/07/27 20:13:13;;;;;;;1.33;0.95;;;20.20;74.40;;;;;;10632942;27;20019;-64
2022/07/27 20:18:14;;;;;;;2.55;0.60;;;20.20;74.40;;;;;;10601927;27;20473;-67
2022/07/27 20:23:15;;;;;;;0.77;0.55;;;20.20;74.40;;;;;;10630652;27;20384;-67
2022/07/27 20:28:16;;;;;;;1.25;0.70;;;20.20;74.50;;;;;;10625406;27;20031;-63
2022/07/27 20:33:21;;;;;;;0.60;0.50;;;20.20;74.50;;;;;;10623627;27;20103;-66
2022/07/27 20:38:22;;;;;;;3.55;0.82;;;20.20;74.50;;;;;;10623706;27;20076;-66
2022/07/27 20:43:26;;;;;;;2.20;0.70;;;20.10;74.50;;;;;;10624591;27;20039;-63
2022/07/27 20:48:27;;;;;;;2.05;0.73;;;20.10;75.10;;;;;;10616290;27;20501;-65
2022/07/27 20:53:27;;;;;;;1.17;0.60;;;20.00;74.50;;;;;;10622769;27;20031;-67
2022/07/27 20:58:28;;;;;;;0.93;0.80;;;20.00;74.50;;;;;;10623014;27;20023;-66
2022/07/27 21:03:29;;;;;;;1.40;0.63;;;20.00;74.60;;;;;;10627434;27;20118;-64
2022/07/27 21:08:30;;;;;;;1.17;0.60;;;20.00;74.60;;;;;;10623919;27;20060;-68
2022/07/27 21:13:31;;;;;;;1.42;0.70;;;20.00;74.60;;;;;;10628562;27;20033;-63
2022/07/27 21:18:32;;;;;;;2.40;0.73;;;19.90;74.60;;;;;;10637317;27;20034;-67
2022/07/27 21:28:52;;;;;;;3.05;0.70;;;19.80;74.50;;;;;;10630928;27;20050;-68
2022/07/27 21:33:53;;;;;;;0.85;0.70;;;19.80;74.50;;;;;;10634603;27;20028;-66
2022/07/27 21:38:54;;;;;;;2.08;0.80;;;19.80;74.50;;;;;;10639967;27;20117;-68
2022/07/27 21:43:54;;;;;;;1.55;0.60;;;19.80;74.50;;;;;;10630881;27;20050;-64
2022/07/27 21:48:55;;;;;;;2.05;0.77;;;19.70;74.50;;;;;;10627515;27;20061;-63
2022/07/27 21:53:56;;;;;;;1.38;0.80;;;19.70;74.50;;;;;;10624388;27;20019;-67
2022/07/27 21:58:56;;;;;;;1.73;1.00;;;19.70;74.60;;;;;;10628643;27;20030;-66
2022/07/27 22:03:57;;;;;;;0.90;0.75;;;19.70;74.60;;;;;;10623797;27;20019;-66
2022/07/27 22:08:58;;;;;;;2.40;0.90;;;19.60;74.60;;;;;;10612918;27;20035;-68
2022/07/27 22:13:58;;;;;;;2.13;0.95;;;20.00;74.80;;;;;;10635001;27;20534;-69
2022/07/27 22:18:59;;;;;;;2.30;0.80;;;19.50;74.60;;;;;;10640072;27;20037;-67
2022/07/27 22:24:00;;;;;;;1.05;0.80;;;19.50;74.60;;;;;;10635639;27;20054;-62
2022/07/27 22:29:01;;;;;;;2.08;0.80;;;19.50;74.70;;;;;;10634177;27;20133;-67
2022/07/27 22:34:01;;;;;;;2.53;0.80;;;19.50;74.70;;;;;;10634831;27;20118;-65
2022/07/27 22:39:02;;;;;;;1.48;0.73;;;19.40;74.70;;;;;;10636486;27;20041;-66
2022/07/27 22:44:03;;;;;;;1.92;1.00;;;19.40;74.70;;;;;;10629334;27;20234;-66
2022/07/27 22:49:04;;;;;;;1.58;0.70;;;19.40;74.70;;;;;;10640821;27;20600;-67
2022/07/27 22:54:04;;;;;;;1.08;0.80;;;19.30;74.80;;;;;;10638318;27;20059;-67
2022/07/27 22:59:05;;;;;;;1.73;0.80;;;19.30;74.80;;;;;;10645993;27;20102;-68
2022/07/27 23:04:06;;;;;;;2.60;1.08;;;19.30;74.90;;;;;;10629099;27;20030;-66
2022/07/27 23:09:06;;;;;;;1.25;0.60;;;19.30;74.90;;;;;;10633490;27;20516;-64
2022/07/27 23:14:07;;;;;;;2.38;0.93;;;19.20;74.90;;;;;;10631987;27;20442;-63
2022/07/27 23:19:08;;;;;;;2.53;0.93;;;19.20;75.00;;;;;;10640649;27;20027;-67
2022/07/27 23:24:09;;;;;;;3.33;0.85;;;19.20;75.00;;;;;;10626565;27;20163;-67
2022/07/27 23:29:10;;;;;;;5.07;1.33;;;19.10;74.90;;;;;;10626858;27;20031;-62
2022/07/27 23:34:10;;;;;;;1.30;0.98;;;19.10;75.00;;;;;;10646262;27;20434;-67
2022/07/27 23:39:11;;;;;;;4.38;1.27;;;19.10;75.00;;;;;;10630379;27;20015;-67
2022/07/27 23:44:12;;;;;;;3.45;1.48;;;19.00;75.00;;;;;;10612443;27;20099;-66
2022/07/27 23:49:12;;;;;;;3.30;1.60;;;19.10;75.10;;;;;;10635341;27;20084;-66
2022/07/27 23:54:13;;;;;;;3.13;1.60;;;19.00;75.10;;;;;;10638397;27;20397;-67
2022/07/27 23:59:14;;;;;;;5.20;1.95;;;19.00;75.10;;;;;;10630640;27;20117;-64
